createdAt,value
2022-10-22T00:00:50.539Z,100648.47
2022-10-22T00:03:24.375Z,100650.34
2022-10-22T00:05:56.800Z,100641.22
2022-10-22T00:08:29.493Z,100644.00
2022-10-22T00:11:08.403Z,100641.13
2022-10-22T00:13:41.384Z,100639.94
2022-10-22T00:16:14.004Z,100649.16
2022-10-22T00:18:46.401Z,100651.22
2022-10-22T00:21:18.804Z,100644.25
2022-10-22T00:23:51.309Z,100645.53
2022-10-22T00:26:23.687Z,100648.28
2022-10-22T00:28:58.716Z,100643.59
2022-10-22T00:31:31.520Z,100655.16
2022-10-22T00:34:06.239Z,100653.81
2022-10-22T00:36:38.709Z,100650.53
2022-10-22T00:39:11.634Z,100653.47
2022-10-22T00:41:45.097Z,100654.00
2022-10-22T00:44:36.318Z,100646.75
2022-10-22T00:47:08.681Z,100652.78
2022-10-22T00:49:41.483Z,100651.41
2022-10-22T00:52:14.140Z,100651.00
2022-10-22T00:54:46.489Z,100653.31
2022-10-22T00:57:22.253Z,100653.91
2022-10-22T00:59:55.759Z,100652.44
2022-10-22T01:02:28.203Z,100658.66
2022-10-22T01:05:00.459Z,100650.63
2022-10-22T01:07:35.768Z,100649.31
2022-10-22T01:10:27.318Z,100642.91
2022-10-22T01:13:00.795Z,100643.59
2022-10-22T01:15:38.196Z,100645.81
2022-10-22T01:18:13.032Z,100644.19
2022-10-22T01:21:09.638Z,100640.13
2022-10-22T01:24:00.806Z,100651.84
2022-10-22T01:26:51.922Z,100643.00
2022-10-22T01:29:24.168Z,100645.34
2022-10-22T01:32:05.040Z,100643.91
2022-10-22T01:34:38.840Z,100643.66
2022-10-22T01:37:13.764Z,100633.00
2022-10-22T01:39:47.269Z,100647.03
2022-10-22T01:42:19.851Z,100640.19
2022-10-22T01:44:52.131Z,100645.03
2022-10-22T01:47:43.111Z,100637.50
2022-10-22T01:50:31.957Z,100636.88
2022-10-22T01:53:16.129Z,100633.28
2022-10-22T01:55:48.656Z,100641.69
2022-10-22T01:58:24.084Z,100636.34
2022-10-22T02:01:13.636Z,100639.66
2022-10-22T02:04:01.501Z,100636.97
2022-10-22T02:06:35.231Z,100641.03
2022-10-22T02:09:08.611Z,100641.38
2022-10-22T02:11:42.441Z,100641.03
2022-10-22T02:14:16.285Z,100638.44
2022-10-22T02:16:49.411Z,100629.34
2022-10-22T02:19:26.479Z,100636.88
2022-10-22T02:21:59.006Z,100632.91
2022-10-22T02:24:31.513Z,100633.59
2022-10-22T02:27:09.299Z,100639.78
2022-10-22T02:29:47.536Z,100640.47
2022-10-22T02:32:22.970Z,100648.78
2022-10-22T02:34:55.903Z,100648.44
2022-10-22T02:37:28.627Z,100645.31
2022-10-22T02:40:01.126Z,100633.75
2022-10-22T02:42:34.637Z,100640.59
2022-10-22T02:45:07.287Z,100640.00
2022-10-22T02:47:39.611Z,100644.75
2022-10-22T02:50:11.947Z,100644.63
2022-10-22T02:52:44.461Z,100650.34
2022-10-22T02:55:16.898Z,100646.19
2022-10-22T02:57:49.170Z,100649.84
2022-10-22T03:00:21.877Z,100646.28
2022-10-22T03:02:54.189Z,100653.47
2022-10-22T03:05:26.810Z,100658.28
2022-10-22T03:07:59.099Z,100659.19
2022-10-22T03:10:31.386Z,100658.50
2022-10-22T03:13:03.701Z,100665.56
2022-10-22T03:15:36.012Z,100664.88
2022-10-22T03:18:08.299Z,100666.44
2022-10-22T03:20:40.891Z,100667.72
2022-10-22T03:23:14.896Z,100669.72
2022-10-22T03:25:48.329Z,100669.72
2022-10-22T03:28:20.864Z,100668.78
2022-10-22T03:30:53.249Z,100673.41
2022-10-22T03:33:25.501Z,100678.88
2022-10-22T03:35:58.130Z,100675.41
2022-10-22T03:38:31.091Z,100676.53
2022-10-22T03:41:03.797Z,100675.06
2022-10-22T03:43:37.443Z,100685.34
2022-10-22T03:46:10.877Z,100677.97
2022-10-22T03:48:43.193Z,100681.09
2022-10-22T03:51:15.536Z,100687.91
2022-10-22T03:53:47.883Z,100691.91
2022-10-22T03:56:20.264Z,100698.09
2022-10-22T03:58:55.544Z,100685.09
2022-10-22T04:01:28.943Z,100702.00
2022-10-22T04:04:01.254Z,100693.72
2022-10-22T04:06:33.548Z,100702.66
2022-10-22T04:09:06.090Z,100700.25
2022-10-22T04:11:39.667Z,100707.69
2022-10-22T04:14:12.103Z,100701.41
2022-10-22T04:16:44.469Z,100702.50
2022-10-22T04:19:16.868Z,100702.94
2022-10-22T04:21:49.166Z,100706.47
2022-10-22T04:24:21.629Z,100713.22
2022-10-22T04:26:57.498Z,100709.22
2022-10-22T04:29:29.823Z,100713.91
2022-10-22T04:32:02.179Z,100715.78
2022-10-22T04:34:34.594Z,100715.38
2022-10-22T04:37:06.933Z,100713.38
2022-10-22T04:39:39.260Z,100713.03
2022-10-22T04:42:11.542Z,100717.38
2022-10-22T04:44:43.881Z,100710.28
2022-10-22T04:47:16.232Z,100708.72
2022-10-22T04:49:57.721Z,100717.78
2022-10-22T04:52:31.281Z,100714.59
2022-10-22T04:55:03.800Z,100719.25
2022-10-22T04:57:36.131Z,100716.13
2022-10-22T05:00:08.617Z,100726.94
2022-10-22T05:02:44.559Z,100722.28
2022-10-22T05:05:16.998Z,100729.69
2022-10-22T05:07:50.728Z,100729.63
2022-10-22T05:10:23.009Z,100735.06
2022-10-22T05:12:55.358Z,100726.50
2022-10-22T05:15:28.961Z,100723.53
2022-10-22T05:18:01.729Z,100730.78
2022-10-22T05:20:33.992Z,100726.19
2022-10-22T05:23:06.342Z,100733.53
2022-10-22T05:25:40.296Z,100733.66
2022-10-22T05:28:14.972Z,100730.38
2022-10-22T05:30:54.711Z,100699.47
2022-10-22T05:33:30.427Z,100729.75
2022-10-22T05:36:05.201Z,100732.41
2022-10-22T05:38:39.705Z,100740.59
2022-10-22T05:41:32.209Z,100737.41
2022-10-22T05:44:05.012Z,100742.94
2022-10-22T05:46:37.422Z,100747.47
2022-10-22T05:49:13.465Z,100749.53
2022-10-22T05:51:49.313Z,100754.41
2022-10-22T05:54:24.228Z,100753.28
2022-10-22T05:56:56.625Z,100750.53
2022-10-22T05:59:29.078Z,100768.53
2022-10-22T06:02:01.425Z,100762.41
2022-10-22T06:04:33.761Z,100759.19
2022-10-22T06:07:06.261Z,100765.53
2022-10-22T06:09:39.161Z,100771.91
2022-10-22T06:12:13.707Z,100767.25
2022-10-22T06:14:46.029Z,100779.97
2022-10-22T06:17:19.832Z,100775.22
2022-10-22T06:19:52.134Z,100787.41
2022-10-22T06:22:24.527Z,100793.34
2022-10-22T06:24:56.828Z,100794.94
2022-10-22T06:27:29.180Z,100804.34
2022-10-22T06:30:01.685Z,100804.25
2022-10-22T06:32:34.138Z,100795.50
2022-10-22T06:35:06.757Z,100805.03
2022-10-22T06:37:41.542Z,100801.03
2022-10-22T06:40:14.175Z,100813.41
2022-10-22T06:42:46.537Z,100821.63
2022-10-22T06:45:19.368Z,100824.38
2022-10-22T06:47:51.739Z,100815.66
2022-10-22T06:50:24.078Z,100832.75
2022-10-22T06:52:56.392Z,100841.63
2022-10-22T06:55:28.687Z,100848.63
2022-10-22T06:58:01.231Z,100846.88
2022-10-22T07:03:06.089Z,100854.41
2022-10-22T07:05:38.494Z,100856.66
2022-10-22T07:08:10.759Z,100861.84
2022-10-22T07:10:43.231Z,100867.28
2022-10-22T07:13:15.951Z,100871.69
2022-10-22T07:15:54.903Z,100873.59
2022-10-22T07:18:27.620Z,100886.38
2022-10-22T07:21:00.009Z,100874.28
2022-10-22T07:23:32.335Z,100882.38
2022-10-22T07:26:07.360Z,100886.88
2022-10-22T07:28:41.006Z,100893.72
2022-10-22T07:31:13.997Z,100894.06
2022-10-22T07:33:46.511Z,100899.41
2022-10-22T07:36:19.010Z,100899.69
2022-10-22T07:38:55.796Z,100907.66
2022-10-22T07:41:29.106Z,100904.38
2022-10-22T07:44:01.432Z,100905.94
2022-10-22T07:46:35.207Z,100911.69
2022-10-22T07:49:07.555Z,100910.38
2022-10-22T07:51:40.045Z,100915.13
2022-10-22T07:54:12.419Z,100915.91
2022-10-22T07:56:44.718Z,100927.91
2022-10-22T07:59:17.195Z,100924.81
2022-10-22T08:01:49.521Z,100931.13
2022-10-22T08:04:22.149Z,100930.31
2022-10-22T08:06:54.803Z,100940.75
2022-10-22T08:09:27.391Z,100943.41
2022-10-22T08:11:59.800Z,100953.94
2022-10-22T08:14:32.155Z,100961.28
2022-10-22T08:17:04.568Z,100961.41
2022-10-22T08:19:36.923Z,100963.06
2022-10-22T08:22:09.252Z,100968.38
2022-10-22T08:24:41.600Z,100969.53
2022-10-22T08:27:13.976Z,100974.16
2022-10-22T08:29:46.270Z,100978.16
2022-10-22T08:32:18.598Z,100982.97
2022-10-22T08:34:50.965Z,100984.38
2022-10-22T08:37:23.274Z,100985.16
2022-10-22T08:39:55.568Z,100988.41
2022-10-22T08:42:46.759Z,100997.41
2022-10-22T08:45:41.462Z,100995.22
2022-10-22T08:48:31.719Z,101007.16
2022-10-22T08:51:04.313Z,101019.69
2022-10-22T08:53:36.583Z,101016.69
2022-10-22T08:56:08.889Z,101010.25
2022-10-22T08:58:53.184Z,101021.28
2022-10-22T09:01:33.191Z,101022.38
2022-10-22T09:04:25.393Z,101023.44
2022-10-22T09:06:58.650Z,101026.69
2022-10-22T09:09:35.059Z,101031.50
2022-10-22T09:12:08.590Z,101035.72
2022-10-22T09:14:41.177Z,101043.28
2022-10-22T09:17:29.437Z,101043.25
2022-10-22T09:20:13.495Z,101054.19
2022-10-22T09:23:04.614Z,101052.19
2022-10-22T09:25:37.517Z,101053.75
2022-10-22T09:28:09.983Z,101053.75
2022-10-22T09:30:43.573Z,101060.66
2022-10-22T09:33:21.330Z,101060.81
2022-10-22T09:36:03.496Z,101064.75
2022-10-22T09:38:40.118Z,101066.50
2022-10-22T09:41:12.853Z,101071.41
2022-10-22T09:43:48.548Z,101070.75
2022-10-22T09:46:25.577Z,101070.97
2022-10-22T09:49:03.428Z,101083.22
2022-10-22T09:51:41.779Z,101082.28
2022-10-22T09:54:22.690Z,101081.66
2022-10-22T09:56:56.663Z,101086.28
2022-10-22T09:59:30.730Z,101088.03
2022-10-22T10:02:20.423Z,101098.72
2022-10-22T10:05:04.583Z,101096.09
2022-10-22T10:07:37.521Z,101108.31
2022-10-22T10:10:19.507Z,101108.97
2022-10-22T10:12:58.543Z,101111.56
2022-10-22T10:15:37.283Z,101120.06
2022-10-22T10:18:09.714Z,101120.97
2022-10-22T10:21:04.344Z,101121.09
2022-10-22T10:23:46.817Z,101116.69
2022-10-22T10:26:27.419Z,101134.19
2022-10-22T10:29:05.613Z,101134.34
2022-10-22T10:31:49.629Z,101137.59
2022-10-22T10:34:25.038Z,101142.03
2022-10-22T10:37:01.577Z,101137.63
2022-10-22T10:39:39.386Z,101143.75
2022-10-22T10:42:26.526Z,101143.31
2022-10-22T10:45:13.625Z,101141.47
2022-10-22T10:47:53.502Z,101146.47
2022-10-22T10:50:29.062Z,101153.59
2022-10-22T10:53:10.213Z,101148.50
2022-10-22T10:55:52.462Z,101149.88
2022-10-22T10:58:30.124Z,101151.56
2022-10-22T11:01:09.856Z,101141.41
2022-10-22T11:04:00.945Z,101156.13
2022-10-22T11:06:34.167Z,101160.34
2022-10-22T11:09:32.958Z,101162.91
2022-10-22T11:12:25.620Z,101161.91
2022-10-22T11:15:12.347Z,101157.09
2022-10-22T11:17:46.869Z,101157.25
2022-10-22T11:20:19.228Z,101171.63
2022-10-22T11:23:19.311Z,101170.00
2022-10-22T11:25:52.702Z,101167.16
2022-10-22T11:28:28.903Z,101160.56
2022-10-22T11:31:08.739Z,101157.31
2022-10-22T11:34:10.168Z,101155.16
2022-10-22T11:36:54.861Z,101145.53
2022-10-22T11:39:33.658Z,101142.78
2022-10-22T11:42:18.501Z,101149.06
2022-10-22T11:45:00.835Z,101147.84
2022-10-22T11:48:02.823Z,101135.50
2022-10-22T11:50:40.991Z,101132.03
2022-10-22T11:53:13.562Z,101133.44
2022-10-22T11:55:56.426Z,101132.19
2022-10-22T11:58:28.839Z,101134.34
2022-10-22T12:01:10.140Z,101139.50
2022-10-22T12:03:44.415Z,101151.09
2022-10-22T12:06:20.935Z,101137.66
2022-10-22T12:08:53.329Z,101137.44
2022-10-22T12:11:47.735Z,101137.88
2022-10-22T12:14:26.378Z,101139.25
2022-10-22T12:17:02.986Z,101142.00
2022-10-22T12:19:37.721Z,101145.75
2022-10-22T12:22:10.480Z,101153.00
2022-10-22T12:24:47.548Z,101151.56
2022-10-22T12:27:24.322Z,101155.94
2022-10-22T12:29:57.904Z,101156.53
2022-10-22T12:32:34.473Z,101154.00
2022-10-22T12:35:18.316Z,101145.63
2022-10-22T12:38:10.901Z,101147.91
2022-10-22T12:40:46.034Z,101151.00
2022-10-22T12:43:25.347Z,101157.00
2022-10-22T12:45:59.099Z,101166.53
2022-10-22T12:48:34.475Z,101158.28
2022-10-22T12:51:08.179Z,101158.53
2022-10-22T12:53:45.023Z,101152.22
2022-10-22T12:56:25.201Z,101160.56
2022-10-22T12:59:01.968Z,101152.56
2022-10-22T13:01:36.653Z,101153.06
2022-10-22T13:04:21.373Z,101145.69
2022-10-22T13:07:06.228Z,101144.00
2022-10-22T13:09:40.225Z,101139.63
2022-10-22T13:12:16.688Z,101134.97
2022-10-22T13:14:49.081Z,101136.81
2022-10-22T13:17:37.397Z,101143.13
2022-10-22T13:20:20.674Z,101136.09
2022-10-22T13:23:03.513Z,101141.25
2022-10-22T13:25:38.714Z,101131.00
2022-10-22T13:28:21.363Z,101144.41
2022-10-22T13:30:58.080Z,101136.63
2022-10-22T13:33:33.094Z,101129.91
2022-10-22T13:36:06.648Z,101119.91
2022-10-22T13:38:38.960Z,101139.78
2022-10-22T13:41:24.971Z,101143.34
2022-10-22T13:43:57.625Z,101139.47
2022-10-22T13:46:29.994Z,101135.53
2022-10-22T13:49:02.317Z,101133.28
2022-10-22T13:51:35.390Z,101132.19
2022-10-22T13:54:13.624Z,101132.19
2022-10-22T13:56:45.965Z,101141.53
2022-10-22T13:59:21.231Z,101128.47
2022-10-22T14:01:57.072Z,101130.63
2022-10-22T14:04:29.350Z,101134.97
2022-10-22T14:07:03.712Z,101149.19
2022-10-22T14:09:36.561Z,101137.69
2022-10-22T14:12:13.037Z,101142.66
2022-10-22T14:14:47.951Z,101145.16
2022-10-22T14:17:20.345Z,101148.94
2022-10-22T14:19:52.684Z,101150.63
2022-10-22T14:22:26.983Z,101150.63
2022-10-22T14:24:59.332Z,101146.31
2022-10-22T14:27:31.607Z,101150.50
2022-10-22T14:30:04.269Z,101146.16
2022-10-22T14:32:36.647Z,101149.09
2022-10-22T14:35:11.609Z,101149.72
2022-10-22T14:37:43.973Z,101148.94
2022-10-22T14:40:18.373Z,101149.19
2022-10-22T14:43:00.225Z,101150.25
2022-10-22T14:45:40.156Z,101151.47
2022-10-22T14:48:13.367Z,101153.34
2022-10-22T14:50:46.224Z,101159.38
2022-10-22T14:53:18.550Z,101157.25
2022-10-22T14:55:51.601Z,101160.38
2022-10-22T14:58:24.108Z,101165.06
2022-10-22T15:00:56.781Z,101166.59
2022-10-22T15:03:29.160Z,101173.59
2022-10-22T15:06:01.577Z,101172.84
2022-10-22T15:08:34.443Z,101185.88
2022-10-22T15:11:09.764Z,101177.63
2022-10-22T15:13:42.311Z,101181.66
2022-10-22T15:16:15.626Z,101182.75
2022-10-22T15:18:48.201Z,101179.94
2022-10-22T15:21:22.501Z,101175.72
2022-10-22T15:23:54.904Z,101178.38
2022-10-22T15:26:28.037Z,101184.38
2022-10-22T15:29:01.842Z,101182.69
2022-10-22T15:31:50.791Z,101183.28
2022-10-22T15:34:31.302Z,101172.69
2022-10-22T15:37:04.977Z,101185.31
2022-10-22T15:39:41.137Z,101180.59
2022-10-22T15:42:14.553Z,101176.81
2022-10-22T15:44:46.910Z,101174.25
2022-10-22T15:47:19.162Z,101174.91
2022-10-22T15:49:51.453Z,101166.75
2022-10-22T15:52:23.757Z,101171.38
2022-10-22T15:54:56.014Z,101166.41
2022-10-22T15:57:28.456Z,101168.13
2022-10-22T16:00:00.735Z,101165.97
2022-10-22T16:02:33.746Z,101164.22
2022-10-22T16:05:06.349Z,101169.44
2022-10-22T16:07:38.893Z,101156.91
2022-10-22T16:10:12.859Z,101154.53
2022-10-22T16:12:45.221Z,101162.97
2022-10-22T16:15:17.570Z,101163.84
2022-10-22T16:17:51.640Z,101157.56
2022-10-22T16:20:24.113Z,101165.53
2022-10-22T16:22:56.420Z,101165.50
2022-10-22T16:25:28.748Z,101170.44
2022-10-22T16:28:01.237Z,101170.50
2022-10-22T16:30:34.703Z,101172.41
2022-10-22T16:33:07.875Z,101178.63
2022-10-22T16:35:41.344Z,101172.56
2022-10-22T16:38:13.643Z,101173.59
2022-10-22T16:40:45.941Z,101180.16
2022-10-22T16:43:18.370Z,101170.16
2022-10-22T16:45:51.199Z,101170.28
2022-10-22T16:48:23.485Z,101175.16
2022-10-22T16:50:55.873Z,101168.13
2022-10-22T16:53:28.160Z,101172.28
2022-10-22T16:56:00.524Z,101174.41
2022-10-22T16:58:33.237Z,101175.75
2022-10-22T17:01:06.881Z,101178.34
2022-10-22T17:03:39.365Z,101186.44
2022-10-22T17:06:12.094Z,101181.06
2022-10-22T17:08:44.430Z,101185.53
2022-10-22T17:11:18.345Z,101182.06
2022-10-22T17:13:52.656Z,101183.75
2022-10-22T17:16:25.185Z,101179.91
2022-10-22T17:18:57.935Z,101191.06
2022-10-22T17:21:30.189Z,101193.50
2022-10-22T17:24:02.723Z,101191.59
2022-10-22T17:26:35.550Z,101185.75
2022-10-22T17:29:07.866Z,101198.44
2022-10-22T17:31:40.684Z,101197.38
2022-10-22T17:34:15.405Z,101195.53
2022-10-22T17:36:47.732Z,101199.56
2022-10-22T17:39:20.014Z,101194.88
2022-10-22T17:41:52.468Z,101190.53
2022-10-22T17:44:24.851Z,101193.44
2022-10-22T17:46:57.310Z,101193.50
2022-10-22T17:49:30.042Z,101190.00
2022-10-22T17:52:02.482Z,101191.56
2022-10-22T17:54:34.772Z,101191.63
2022-10-22T17:57:07.283Z,101205.09
2022-10-22T17:59:39.664Z,101204.34
2022-10-22T18:02:15.267Z,101197.78
2022-10-22T18:04:50.254Z,101197.69
2022-10-22T18:07:22.595Z,101197.78
2022-10-22T18:09:54.931Z,101209.66
2022-10-22T18:12:27.341Z,101206.59
2022-10-22T18:14:59.723Z,101206.63
2022-10-22T18:17:34.644Z,101204.66
2022-10-22T18:20:09.956Z,101206.63
2022-10-22T18:22:45.350Z,101208.25
2022-10-22T18:25:17.848Z,101211.44
2022-10-22T18:27:52.395Z,101220.94
2022-10-22T18:30:25.385Z,101217.81
2022-10-22T18:32:58.814Z,101223.25
2022-10-22T18:35:35.979Z,101221.31
2022-10-22T18:38:08.761Z,101219.31
2022-10-22T18:40:46.134Z,101223.94
2022-10-22T18:43:18.914Z,101218.00
2022-10-22T18:45:53.587Z,101211.28
2022-10-22T18:48:26.219Z,101218.41
2022-10-22T18:51:04.239Z,101219.25
2022-10-22T18:53:38.259Z,101216.13
2022-10-22T18:56:11.761Z,101208.25
2022-10-22T18:58:46.226Z,101201.97
2022-10-22T19:01:19.983Z,101210.25
2022-10-22T19:03:52.793Z,101209.09
2022-10-22T19:06:29.985Z,101204.41
2022-10-22T19:09:04.925Z,101198.88
2022-10-22T19:11:37.772Z,101189.38
2022-10-22T19:14:10.918Z,101185.44
2022-10-22T19:16:43.322Z,101179.91
2022-10-22T19:19:18.201Z,101182.25
2022-10-22T19:21:50.978Z,101180.69
2022-10-22T19:24:23.447Z,101177.94
2022-10-22T19:26:58.850Z,101185.44
2022-10-22T19:29:31.532Z,101186.97
2022-10-22T19:32:03.954Z,101187.78
2022-10-22T19:34:36.415Z,101193.31
2022-10-22T19:37:08.853Z,101192.50
2022-10-22T19:39:41.330Z,101184.66
2022-10-22T19:42:15.557Z,101186.94
2022-10-22T19:44:52.935Z,101180.56
2022-10-22T19:47:25.352Z,101182.09
2022-10-22T19:49:57.694Z,101189.13
2022-10-22T19:52:30.234Z,101177.25
2022-10-22T19:55:02.648Z,101174.44
2022-10-22T19:57:35.162Z,101173.97
2022-10-22T20:00:08.177Z,101171.50
2022-10-22T20:02:40.550Z,101180.56
2022-10-22T20:05:12.998Z,101178.59
2022-10-22T20:07:45.408Z,101183.34
2022-10-22T20:10:17.792Z,101184.97
2022-10-22T20:12:50.344Z,101189.63
2022-10-22T20:15:22.763Z,101187.31
2022-10-22T20:17:55.096Z,101188.09
2022-10-22T20:20:27.512Z,101194.03
2022-10-22T20:22:59.933Z,101193.25
2022-10-22T20:25:32.372Z,101192.84
2022-10-22T20:28:07.835Z,101194.75
2022-10-22T20:30:44.225Z,101193.50
2022-10-22T20:33:16.564Z,101201.38
2022-10-22T20:36:02.390Z,101202.91
2022-10-22T20:41:08.854Z,101204.38
2022-10-22T20:44:02.107Z,101213.09
2022-10-22T20:46:34.745Z,101210.25
2022-10-22T20:49:15.597Z,101211.84
2022-10-22T20:51:48.046Z,101209.84
2022-10-22T20:54:20.411Z,101201.47
2022-10-22T20:56:52.847Z,101201.00
2022-10-22T20:59:32.369Z,101191.03
2022-10-22T21:02:05.321Z,101193.66
2022-10-22T21:04:42.737Z,101196.72
2022-10-22T21:07:17.983Z,101197.47
2022-10-22T21:09:51.912Z,101193.50
2022-10-22T21:12:24.345Z,101201.44
2022-10-22T21:14:56.898Z,101212.50
2022-10-22T21:17:29.247Z,101207.84
2022-10-22T21:20:01.702Z,101209.00
2022-10-22T21:22:34.484Z,101207.09
2022-10-22T21:25:07.015Z,101192.94
2022-10-22T21:27:39.438Z,101193.28
2022-10-22T21:30:12.490Z,101200.38
2022-10-22T21:32:44.942Z,101197.59
2022-10-22T21:35:17.768Z,101200.03
2022-10-22T21:37:50.377Z,101197.69
2022-10-22T21:40:22.657Z,101199.69
2022-10-22T21:42:54.993Z,101205.97
2022-10-22T21:45:27.296Z,101210.72
2022-10-22T21:47:59.642Z,101205.19
2022-10-22T21:50:32.436Z,101211.09
2022-10-22T21:53:04.811Z,101213.41
2022-10-22T21:55:38.445Z,101211.00
2022-10-22T21:58:10.742Z,101210.66
2022-10-22T22:00:43.022Z,101211.41
2022-10-22T22:03:15.294Z,101212.63
2022-10-22T22:05:47.793Z,101205.56
2022-10-22T22:08:20.120Z,101208.31
2022-10-22T22:10:53.647Z,101200.84
2022-10-22T22:13:25.963Z,101199.31
2022-10-22T22:16:02.584Z,101194.63
2022-10-22T22:18:35.545Z,101201.00
2022-10-22T22:21:10.131Z,101203.41
2022-10-22T22:23:43.421Z,101187.63
2022-10-22T22:26:17.357Z,101184.56
2022-10-22T22:28:49.665Z,101179.03
2022-10-22T22:31:23.192Z,101187.31
2022-10-22T22:34:03.433Z,101186.88
2022-10-22T22:36:37.208Z,101190.06
2022-10-22T22:39:12.091Z,101193.16
2022-10-22T22:41:44.553Z,101194.75
2022-10-22T22:44:17.362Z,101186.88
2022-10-22T22:46:49.715Z,101173.50
2022-10-22T22:49:21.974Z,101176.25
2022-10-22T22:51:54.445Z,101171.50
2022-10-22T22:54:26.770Z,101173.53
2022-10-22T22:56:59.187Z,101165.66
2022-10-22T22:59:31.520Z,101157.72
2022-10-22T23:02:03.811Z,101165.59
2022-10-22T23:04:36.331Z,101162.44
2022-10-22T23:07:10.076Z,101159.22
2022-10-22T23:09:42.338Z,101164.75
2022-10-22T23:12:14.806Z,101164.84
2022-10-22T23:14:49.396Z,101168.16
2022-10-22T23:17:21.869Z,101160.31
2022-10-22T23:19:54.325Z,101156.47
2022-10-22T23:22:26.662Z,101161.38
2022-10-22T23:24:59.011Z,101163.75
2022-10-22T23:27:31.361Z,101155.97
2022-10-22T23:30:03.804Z,101156.88
2022-10-22T23:32:37.294Z,101160.88
2022-10-22T23:35:09.654Z,101152.25
2022-10-22T23:37:42.827Z,101151.44
2022-10-22T23:40:15.475Z,101148.69
2022-10-22T23:42:47.828Z,101144.78
2022-10-22T23:45:20.151Z,101131.81
2022-10-22T23:47:52.447Z,101125.94
2022-10-22T23:50:24.828Z,101121.59
2022-10-22T23:52:57.416Z,101123.53
2022-10-22T23:55:29.678Z,101125.44
2022-10-22T23:58:01.980Z,101127.75
